sensor_id;sensor_type;location;lat;lon;timestamp;P1;durP1;ratioP1;P2;durP2;ratioP2
68178;SDS011;54998;42.656;23.382;2023-04-25T00:02:53;7.22;;;3.97;;
68178;SDS011;54998;42.656;23.382;2023-04-25T00:05:20;6.15;;;3.22;;
68178;SDS011;54998;42.656;23.382;2023-04-25T00:07:48;7.43;;;3.38;;
68178;SDS011;54998;42.656;23.382;2023-04-25T00:10:14;6.22;;;3.42;;
68178;SDS011;54998;42.656;23.382;2023-04-25T00:12:41;5.53;;;3.20;;
68178;SDS011;54998;42.656;23.382;2023-04-25T00:15:07;6.60;;;3.35;;
68178;SDS011;54998;42.656;23.382;2023-04-25T00:17:33;6.07;;;3.38;;
68178;SDS011;54998;42.656;23.382;2023-04-25T00:20:00;6.53;;;3.33;;
68178;SDS011;54998;42.656;23.382;2023-04-25T00:22:25;7.25;;;3.97;;
68178;SDS011;54998;42.656;23.382;2023-04-25T00:24:51;6.32;;;3.83;;
68178;SDS011;54998;42.656;23.382;2023-04-25T00:27:18;7.28;;;4.20;;
68178;SDS011;54998;42.656;23.382;2023-04-25T00:29:44;7.05;;;3.22;;
68178;SDS011;54998;42.656;23.382;2023-04-25T00:32:09;7.28;;;3.75;;
68178;SDS011;54998;42.656;23.382;2023-04-25T00:34:35;9.73;;;4.57;;
68178;SDS011;54998;42.656;23.382;2023-04-25T00:37:01;9.07;;;3.00;;
68178;SDS011;54998;42.656;23.382;2023-04-25T00:39:29;7.15;;;3.95;;
68178;SDS011;54998;42.656;23.382;2023-04-25T00:41:55;8.95;;;3.10;;
68178;SDS011;54998;42.656;23.382;2023-04-25T00:44:21;9.60;;;3.95;;
68178;SDS011;54998;42.656;23.382;2023-04-25T00:46:47;6.85;;;3.80;;
68178;SDS011;54998;42.656;23.382;2023-04-25T00:49:14;7.00;;;3.53;;
68178;SDS011;54998;42.656;23.382;2023-04-25T00:51:40;7.63;;;3.35;;
68178;SDS011;54998;42.656;23.382;2023-04-25T00:54:06;7.47;;;3.17;;
68178;SDS011;54998;42.656;23.382;2023-04-25T00:56:32;4.18;;;1.92;;
68178;SDS011;54998;42.656;23.382;2023-04-25T00:58:57;6.90;;;3.10;;
68178;SDS011;54998;42.656;23.382;2023-04-25T01:01:23;6.50;;;3.22;;
68178;SDS011;54998;42.656;23.382;2023-04-25T01:03:49;5.10;;;2.55;;
68178;SDS011;54998;42.656;23.382;2023-04-25T01:06:16;4.53;;;2.70;;
68178;SDS011;54998;42.656;23.382;2023-04-25T01:08:42;5.22;;;2.72;;
68178;SDS011;54998;42.656;23.382;2023-04-25T01:11:07;6.03;;;3.08;;
68178;SDS011;54998;42.656;23.382;2023-04-25T01:13:33;6.25;;;3.70;;
68178;SDS011;54998;42.656;23.382;2023-04-25T01:15:59;6.38;;;2.83;;
68178;SDS011;54998;42.656;23.382;2023-04-25T01:18:26;7.28;;;3.05;;
68178;SDS011;54998;42.656;23.382;2023-04-25T01:20:51;5.03;;;2.75;;
68178;SDS011;54998;42.656;23.382;2023-04-25T01:23:18;6.78;;;3.40;;
68178;SDS011;54998;42.656;23.382;2023-04-25T01:25:45;5.07;;;2.70;;
68178;SDS011;54998;42.656;23.382;2023-04-25T01:28:12;8.13;;;3.63;;
68178;SDS011;54998;42.656;23.382;2023-04-25T01:30:38;6.32;;;3.55;;
68178;SDS011;54998;42.656;23.382;2023-04-25T01:33:04;6.45;;;3.60;;
68178;SDS011;54998;42.656;23.382;2023-04-25T01:35:31;5.97;;;3.45;;
68178;SDS011;54998;42.656;23.382;2023-04-25T01:37:57;7.43;;;3.80;;
68178;SDS011;54998;42.656;23.382;2023-04-25T01:40:22;6.45;;;3.70;;
68178;SDS011;54998;42.656;23.382;2023-04-25T01:42:49;5.80;;;3.60;;
68178;SDS011;54998;42.656;23.382;2023-04-25T01:45:15;6.97;;;3.58;;
68178;SDS011;54998;42.656;23.382;2023-04-25T01:47:42;7.55;;;3.42;;
68178;SDS011;54998;42.656;23.382;2023-04-25T01:52:43;8.57;;;4.45;;
68178;SDS011;54998;42.656;23.382;2023-04-25T01:55:09;8.55;;;4.43;;
68178;SDS011;54998;42.656;23.382;2023-04-25T01:57:35;8.02;;;3.92;;
68178;SDS011;54998;42.656;23.382;2023-04-25T02:00:01;9.75;;;5.13;;
68178;SDS011;54998;42.656;23.382;2023-04-25T02:02:30;7.15;;;4.13;;
68178;SDS011;54998;42.656;23.382;2023-04-25T02:11:07;9.65;;;4.22;;
68178;SDS011;54998;42.656;23.382;2023-04-25T02:13:33;9.82;;;5.38;;
68178;SDS011;54998;42.656;23.382;2023-04-25T02:15:58;11.23;;;5.43;;
68178;SDS011;54998;42.656;23.382;2023-04-25T02:18:23;12.68;;;5.30;;
68178;SDS011;54998;42.656;23.382;2023-04-25T02:20:51;11.82;;;5.90;;
68178;SDS011;54998;42.656;23.382;2023-04-25T02:23:16;10.52;;;5.32;;
68178;SDS011;54998;42.656;23.382;2023-04-25T02:25:44;10.40;;;5.15;;
68178;SDS011;54998;42.656;23.382;2023-04-25T02:28:09;13.38;;;5.70;;
68178;SDS011;54998;42.656;23.382;2023-04-25T02:30:35;10.15;;;5.25;;
68178;SDS011;54998;42.656;23.382;2023-04-25T02:33:01;11.20;;;5.78;;
68178;SDS011;54998;42.656;23.382;2023-04-25T02:35:26;10.30;;;5.18;;
68178;SDS011;54998;42.656;23.382;2023-04-25T02:37:51;10.07;;;5.03;;
68178;SDS011;54998;42.656;23.382;2023-04-25T02:40:17;11.13;;;5.38;;
68178;SDS011;54998;42.656;23.382;2023-04-25T02:42:42;13.23;;;5.28;;
68178;SDS011;54998;42.656;23.382;2023-04-25T02:47:54;9.77;;;5.05;;
68178;SDS011;54998;42.656;23.382;2023-04-25T02:50:19;9.93;;;5.15;;
68178;SDS011;54998;42.656;23.382;2023-04-25T02:52:45;14.23;;;6.60;;
68178;SDS011;54998;42.656;23.382;2023-04-25T02:55:11;14.05;;;6.40;;
68178;SDS011;54998;42.656;23.382;2023-04-25T02:57:37;11.30;;;5.93;;
68178;SDS011;54998;42.656;23.382;2023-04-25T03:00:03;12.13;;;5.75;;
68178;SDS011;54998;42.656;23.382;2023-04-25T03:04:55;11.23;;;5.47;;
68178;SDS011;54998;42.656;23.382;2023-04-25T03:07:21;14.45;;;6.18;;
68178;SDS011;54998;42.656;23.382;2023-04-25T03:09:46;13.50;;;6.82;;
68178;SDS011;54998;42.656;23.382;2023-04-25T03:12:11;13.35;;;6.63;;
68178;SDS011;54998;42.656;23.382;2023-04-25T03:14:37;13.02;;;6.40;;
68178;SDS011;54998;42.656;23.382;2023-04-25T03:17:02;14.80;;;6.13;;
68178;SDS011;54998;42.656;23.382;2023-04-25T03:19:28;13.77;;;6.43;;
68178;SDS011;54998;42.656;23.382;2023-04-25T03:21:53;15.60;;;7.88;;
68178;SDS011;54998;42.656;23.382;2023-04-25T03:24:18;15.07;;;7.57;;
68178;SDS011;54998;42.656;23.382;2023-04-25T03:26:44;16.63;;;6.72;;
68178;SDS011;54998;42.656;23.382;2023-04-25T03:29:10;14.98;;;7.47;;
68178;SDS011;54998;42.656;23.382;2023-04-25T03:31:35;12.73;;;6.18;;
68178;SDS011;54998;42.656;23.382;2023-04-25T03:34:01;15.68;;;7.30;;
68178;SDS011;54998;42.656;23.382;2023-04-25T03:36:26;13.15;;;7.00;;
68178;SDS011;54998;42.656;23.382;2023-04-25T03:38:52;11.68;;;6.68;;
68178;SDS011;54998;42.656;23.382;2023-04-25T03:41:17;15.93;;;7.55;;
68178;SDS011;54998;42.656;23.382;2023-04-25T03:43:42;15.60;;;6.72;;
68178;SDS011;54998;42.656;23.382;2023-04-25T03:46:08;15.43;;;6.90;;
68178;SDS011;54998;42.656;23.382;2023-04-25T03:48:33;14.60;;;7.03;;
68178;SDS011;54998;42.656;23.382;2023-04-25T03:50:59;17.27;;;7.35;;
68178;SDS011;54998;42.656;23.382;2023-04-25T03:53:25;16.92;;;7.72;;
68178;SDS011;54998;42.656;23.382;2023-04-25T03:55:50;16.45;;;7.82;;
68178;SDS011;54998;42.656;23.382;2023-04-25T03:58:16;14.65;;;6.95;;
68178;SDS011;54998;42.656;23.382;2023-04-25T04:00:42;16.40;;;8.55;;
68178;SDS011;54998;42.656;23.382;2023-04-25T04:03:07;17.45;;;8.68;;
68178;SDS011;54998;42.656;23.382;2023-04-25T04:05:33;17.05;;;9.20;;
68178;SDS011;54998;42.656;23.382;2023-04-25T04:07:58;16.52;;;8.98;;
68178;SDS011;54998;42.656;23.382;2023-04-25T04:10:23;16.20;;;9.27;;
68178;SDS011;54998;42.656;23.382;2023-04-25T04:12:49;13.85;;;7.57;;
68178;SDS011;54998;42.656;23.382;2023-04-25T04:15:14;15.25;;;7.28;;
68178;SDS011;54998;42.656;23.382;2023-04-25T04:17:40;14.98;;;7.70;;
68178;SDS011;54998;42.656;23.382;2023-04-25T04:20:06;12.27;;;6.53;;
68178;SDS011;54998;42.656;23.382;2023-04-25T04:22:33;14.15;;;7.25;;
68178;SDS011;54998;42.656;23.382;2023-04-25T04:24:58;15.13;;;8.05;;
68178;SDS011;54998;42.656;23.382;2023-04-25T04:27:24;12.38;;;7.10;;
68178;SDS011;54998;42.656;23.382;2023-04-25T04:29:49;12.60;;;6.72;;
68178;SDS011;54998;42.656;23.382;2023-04-25T04:32:17;13.45;;;6.85;;
68178;SDS011;54998;42.656;23.382;2023-04-25T04:34:42;14.05;;;8.27;;
68178;SDS011;54998;42.656;23.382;2023-04-25T04:37:08;13.45;;;7.15;;
68178;SDS011;54998;42.656;23.382;2023-04-25T04:39:34;9.38;;;5.80;;
68178;SDS011;54998;42.656;23.382;2023-04-25T04:42:00;8.40;;;5.10;;
68178;SDS011;54998;42.656;23.382;2023-04-25T04:44:30;8.93;;;5.07;;
68178;SDS011;54998;42.656;23.382;2023-04-25T04:46:57;7.20;;;4.45;;
68178;SDS011;54998;42.656;23.382;2023-04-25T04:49:23;7.38;;;4.10;;
68178;SDS011;54998;42.656;23.382;2023-04-25T04:51:49;7.22;;;4.25;;
68178;SDS011;54998;42.656;23.382;2023-04-25T04:54:14;8.45;;;4.65;;
68178;SDS011;54998;42.656;23.382;2023-04-25T04:56:40;12.82;;;4.88;;
68178;SDS011;54998;42.656;23.382;2023-04-25T04:59:06;10.18;;;5.03;;
68178;SDS011;54998;42.656;23.382;2023-04-25T05:01:32;8.35;;;4.63;;
68178;SDS011;54998;42.656;23.382;2023-04-25T05:03:57;8.65;;;4.78;;
68178;SDS011;54998;42.656;23.382;2023-04-25T05:06:26;11.55;;;6.40;;
68178;SDS011;54998;42.656;23.382;2023-04-25T05:08:54;9.73;;;5.93;;
68178;SDS011;54998;42.656;23.382;2023-04-25T05:11:19;10.15;;;6.35;;
68178;SDS011;54998;42.656;23.382;2023-04-25T05:13:46;11.45;;;6.38;;
68178;SDS011;54998;42.656;23.382;2023-04-25T05:16:11;11.98;;;7.30;;
68178;SDS011;54998;42.656;23.382;2023-04-25T05:18:38;14.05;;;7.55;;
68178;SDS011;54998;42.656;23.382;2023-04-25T05:21:04;12.05;;;7.30;;
68178;SDS011;54998;42.656;23.382;2023-04-25T05:23:30;13.40;;;7.13;;
68178;SDS011;54998;42.656;23.382;2023-04-25T05:25:56;12.05;;;6.95;;
68178;SDS011;54998;42.656;23.382;2023-04-25T05:28:21;14.05;;;6.85;;
68178;SDS011;54998;42.656;23.382;2023-04-25T05:30:47;12.73;;;7.30;;
68178;SDS011;54998;42.656;23.382;2023-04-25T05:33:12;12.27;;;6.72;;
68178;SDS011;54998;42.656;23.382;2023-04-25T05:35:38;12.90;;;7.65;;
68178;SDS011;54998;42.656;23.382;2023-04-25T05:38:03;12.70;;;6.80;;
68178;SDS011;54998;42.656;23.382;2023-04-25T05:40:29;12.23;;;6.97;;
68178;SDS011;54998;42.656;23.382;2023-04-25T05:42:54;12.93;;;7.00;;
68178;SDS011;54998;42.656;23.382;2023-04-25T05:45:20;10.15;;;5.85;;
68178;SDS011;54998;42.656;23.382;2023-04-25T05:47:45;12.73;;;6.05;;
68178;SDS011;54998;42.656;23.382;2023-04-25T05:50:11;9.55;;;6.18;;
68178;SDS011;54998;42.656;23.382;2023-04-25T05:52:36;13.90;;;6.55;;
68178;SDS011;54998;42.656;23.382;2023-04-25T05:55:01;16.50;;;7.03;;
68178;SDS011;54998;42.656;23.382;2023-04-25T05:57:27;11.65;;;6.45;;
68178;SDS011;54998;42.656;23.382;2023-04-25T05:59:53;11.95;;;6.25;;
68178;SDS011;54998;42.656;23.382;2023-04-25T06:02:19;13.05;;;7.65;;
68178;SDS011;54998;42.656;23.382;2023-04-25T06:04:49;9.93;;;5.35;;
68178;SDS011;54998;42.656;23.382;2023-04-25T06:07:15;10.07;;;5.68;;
68178;SDS011;54998;42.656;23.382;2023-04-25T06:09:41;12.15;;;6.07;;
68178;SDS011;54998;42.656;23.382;2023-04-25T06:12:06;13.25;;;5.07;;
68178;SDS011;54998;42.656;23.382;2023-04-25T06:14:32;10.13;;;4.97;;
68178;SDS011;54998;42.656;23.382;2023-04-25T06:16:58;8.40;;;5.43;;
68178;SDS011;54998;42.656;23.382;2023-04-25T06:19:24;11.15;;;5.40;;
68178;SDS011;54998;42.656;23.382;2023-04-25T06:21:49;8.80;;;5.30;;
68178;SDS011;54998;42.656;23.382;2023-04-25T06:24:15;7.72;;;3.85;;
68178;SDS011;54998;42.656;23.382;2023-04-25T06:26:40;7.40;;;3.75;;
68178;SDS011;54998;42.656;23.382;2023-04-25T06:29:06;6.93;;;4.22;;
68178;SDS011;54998;42.656;23.382;2023-04-25T06:31:31;10.95;;;5.18;;
68178;SDS011;54998;42.656;23.382;2023-04-25T06:33:58;6.85;;;4.53;;
68178;SDS011;54998;42.656;23.382;2023-04-25T06:36:23;10.85;;;5.18;;
68178;SDS011;54998;42.656;23.382;2023-04-25T06:38:51;8.43;;;4.47;;
68178;SDS011;54998;42.656;23.382;2023-04-25T06:46:08;6.47;;;4.25;;
68178;SDS011;54998;42.656;23.382;2023-04-25T06:48:33;12.65;;;4.53;;
68178;SDS011;54998;42.656;23.382;2023-04-25T06:50:58;8.02;;;4.55;;
68178;SDS011;54998;42.656;23.382;2023-04-25T06:53:24;10.48;;;4.13;;
68178;SDS011;54998;42.656;23.382;2023-04-25T06:55:49;8.07;;;4.35;;
68178;SDS011;54998;42.656;23.382;2023-04-25T06:58:15;6.78;;;3.47;;
68178;SDS011;54998;42.656;23.382;2023-04-25T07:00:40;5.75;;;3.63;;
68178;SDS011;54998;42.656;23.382;2023-04-25T07:03:06;4.82;;;3.40;;
68178;SDS011;54998;42.656;23.382;2023-04-25T07:05:31;5.18;;;4.00;;
68178;SDS011;54998;42.656;23.382;2023-04-25T07:07:56;8.77;;;3.88;;
68178;SDS011;54998;42.656;23.382;2023-04-25T07:10:22;7.25;;;4.25;;
68178;SDS011;54998;42.656;23.382;2023-04-25T07:12:48;5.25;;;3.35;;
68178;SDS011;54998;42.656;23.382;2023-04-25T07:15:13;6.68;;;3.10;;
68178;SDS011;54998;42.656;23.382;2023-04-25T07:17:38;6.40;;;4.03;;
68178;SDS011;54998;42.656;23.382;2023-04-25T07:20:04;6.03;;;3.88;;
68178;SDS011;54998;42.656;23.382;2023-04-25T07:22:34;7.25;;;4.03;;
68178;SDS011;54998;42.656;23.382;2023-04-25T07:25:00;10.82;;;4.70;;
68178;SDS011;54998;42.656;23.382;2023-04-25T07:27:25;8.57;;;4.10;;
68178;SDS011;54998;42.656;23.382;2023-04-25T07:29:51;6.72;;;3.92;;
68178;SDS011;54998;42.656;23.382;2023-04-25T07:32:16;9.88;;;4.35;;
68178;SDS011;54998;42.656;23.382;2023-04-25T07:34:41;8.40;;;4.55;;
68178;SDS011;54998;42.656;23.382;2023-04-25T07:37:07;6.28;;;4.13;;
68178;SDS011;54998;42.656;23.382;2023-04-25T07:39:32;6.40;;;4.13;;
68178;SDS011;54998;42.656;23.382;2023-04-25T07:41:58;6.70;;;4.28;;
68178;SDS011;54998;42.656;23.382;2023-04-25T07:44:23;8.60;;;4.72;;
68178;SDS011;54998;42.656;23.382;2023-04-25T07:46:50;7.80;;;4.45;;
68178;SDS011;54998;42.656;23.382;2023-04-25T07:49:16;7.70;;;4.63;;
68178;SDS011;54998;42.656;23.382;2023-04-25T07:51:41;6.65;;;4.82;;
68178;SDS011;54998;42.656;23.382;2023-04-25T07:54:08;6.32;;;3.80;;
68178;SDS011;54998;42.656;23.382;2023-04-25T07:56:34;8.35;;;4.57;;
68178;SDS011;54998;42.656;23.382;2023-04-25T07:59:00;8.45;;;4.63;;
68178;SDS011;54998;42.656;23.382;2023-04-25T08:01:26;10.02;;;4.53;;
68178;SDS011;54998;42.656;23.382;2023-04-25T08:03:52;10.82;;;5.25;;
68178;SDS011;54998;42.656;23.382;2023-04-25T08:06:17;9.55;;;4.90;;
68178;SDS011;54998;42.656;23.382;2023-04-25T08:08:43;11.00;;;4.95;;
68178;SDS011;54998;42.656;23.382;2023-04-25T08:11:08;15.68;;;5.35;;
68178;SDS011;54998;42.656;23.382;2023-04-25T08:13:34;10.18;;;4.53;;
68178;SDS011;54998;42.656;23.382;2023-04-25T08:16:00;7.97;;;4.72;;
68178;SDS011;54998;42.656;23.382;2023-04-25T08:18:25;7.35;;;4.93;;
68178;SDS011;54998;42.656;23.382;2023-04-25T08:20:51;8.70;;;5.18;;
68178;SDS011;54998;42.656;23.382;2023-04-25T08:23:16;8.15;;;4.70;;
68178;SDS011;54998;42.656;23.382;2023-04-25T08:25:41;6.80;;;4.93;;
68178;SDS011;54998;42.656;23.382;2023-04-25T08:28:07;7.25;;;4.70;;
68178;SDS011;54998;42.656;23.382;2023-04-25T08:30:32;7.97;;;5.10;;
68178;SDS011;54998;42.656;23.382;2023-04-25T08:32:58;8.48;;;5.45;;
68178;SDS011;54998;42.656;23.382;2023-04-25T08:35:23;8.70;;;5.40;;
68178;SDS011;54998;42.656;23.382;2023-04-25T08:37:49;7.35;;;4.75;;
68178;SDS011;54998;42.656;23.382;2023-04-25T08:40:14;5.97;;;4.07;;
68178;SDS011;54998;42.656;23.382;2023-04-25T08:42:41;9.38;;;5.50;;
68178;SDS011;54998;42.656;23.382;2023-04-25T08:45:08;6.72;;;4.10;;
68178;SDS011;54998;42.656;23.382;2023-04-25T08:47:34;8.60;;;4.88;;
68178;SDS011;54998;42.656;23.382;2023-04-25T08:50:02;6.65;;;4.40;;
68178;SDS011;54998;42.656;23.382;2023-04-25T08:52:30;9.15;;;4.47;;
68178;SDS011;54998;42.656;23.382;2023-04-25T08:55:00;6.80;;;3.28;;
68178;SDS011;54998;42.656;23.382;2023-04-25T08:57:27;3.10;;;1.85;;
68178;SDS011;54998;42.656;23.382;2023-04-25T08:59:54;3.00;;;2.63;;
68178;SDS011;54998;42.656;23.382;2023-04-25T09:02:21;3.80;;;2.10;;
68178;SDS011;54998;42.656;23.382;2023-04-25T09:04:47;5.93;;;4.50;;
68178;SDS011;54998;42.656;23.382;2023-04-25T09:07:13;7.93;;;5.72;;
68178;SDS011;54998;42.656;23.382;2023-04-25T09:09:43;7.82;;;6.50;;
68178;SDS011;54998;42.656;23.382;2023-04-25T09:12:08;8.90;;;7.25;;
68178;SDS011;54998;42.656;23.382;2023-04-25T09:14:35;7.38;;;6.50;;
68178;SDS011;54998;42.656;23.382;2023-04-25T09:17:01;7.28;;;5.40;;
68178;SDS011;54998;42.656;23.382;2023-04-25T09:19:29;7.60;;;6.38;;
68178;SDS011;54998;42.656;23.382;2023-04-25T09:21:56;9.60;;;7.50;;
68178;SDS011;54998;42.656;23.382;2023-04-25T09:24:34;7.60;;;4.53;;
68178;SDS011;54998;42.656;23.382;2023-04-25T09:27:09;7.25;;;5.25;;
68178;SDS011;54998;42.656;23.382;2023-04-25T09:29:36;9.85;;;6.65;;
68178;SDS011;54998;42.656;23.382;2023-04-25T09:32:22;6.97;;;4.82;;
68178;SDS011;54998;42.656;23.382;2023-04-25T09:37:23;7.25;;;4.90;;
68178;SDS011;54998;42.656;23.382;2023-04-25T09:39:54;12.25;;;5.20;;
68178;SDS011;54998;42.656;23.382;2023-04-25T09:42:22;11.60;;;6.40;;
68178;SDS011;54998;42.656;23.382;2023-04-25T09:44:49;10.90;;;5.40;;
68178;SDS011;54998;42.656;23.382;2023-04-25T09:47:17;10.48;;;5.30;;
68178;SDS011;54998;42.656;23.382;2023-04-25T09:49:46;10.70;;;6.05;;
68178;SDS011;54998;42.656;23.382;2023-04-25T09:52:18;10.48;;;5.70;;
68178;SDS011;54998;42.656;23.382;2023-04-25T09:54:45;6.85;;;4.95;;
68178;SDS011;54998;42.656;23.382;2023-04-25T09:57:18;8.30;;;5.00;;
68178;SDS011;54998;42.656;23.382;2023-04-25T09:59:46;6.15;;;3.25;;
68178;SDS011;54998;42.656;23.382;2023-04-25T10:02:17;5.03;;;3.83;;
68178;SDS011;54998;42.656;23.382;2023-04-25T10:04:47;7.03;;;4.15;;
68178;SDS011;54998;42.656;23.382;2023-04-25T10:07:16;4.68;;;2.97;;
68178;SDS011;54998;42.656;23.382;2023-04-25T10:09:42;4.30;;;3.13;;
68178;SDS011;54998;42.656;23.382;2023-04-25T10:12:15;6.78;;;3.60;;
68178;SDS011;54998;42.656;23.382;2023-04-25T10:14:41;5.82;;;4.03;;
68178;SDS011;54998;42.656;23.382;2023-04-25T10:17:08;5.65;;;3.95;;
68178;SDS011;54998;42.656;23.382;2023-04-25T10:19:35;7.32;;;3.63;;
68178;SDS011;54998;42.656;23.382;2023-04-25T10:24:32;8.68;;;4.40;;
68178;SDS011;54998;42.656;23.382;2023-04-25T10:26:59;9.10;;;4.63;;
68178;SDS011;54998;42.656;23.382;2023-04-25T10:29:25;7.43;;;4.13;;
68178;SDS011;54998;42.656;23.382;2023-04-25T10:31:51;9.48;;;4.70;;
68178;SDS011;54998;42.656;23.382;2023-04-25T10:34:17;9.18;;;4.32;;
68178;SDS011;54998;42.656;23.382;2023-04-25T10:36:44;7.88;;;4.22;;
68178;SDS011;54998;42.656;23.382;2023-04-25T10:39:15;5.85;;;3.95;;
68178;SDS011;54998;42.656;23.382;2023-04-25T10:41:52;5.78;;;4.45;;
68178;SDS011;54998;42.656;23.382;2023-04-25T10:44:18;6.75;;;4.25;;
68178;SDS011;54998;42.656;23.382;2023-04-25T10:46:46;5.72;;;3.78;;
68178;SDS011;54998;42.656;23.382;2023-04-25T10:49:28;7.20;;;3.47;;
68178;SDS011;54998;42.656;23.382;2023-04-25T10:52:13;5.30;;;3.63;;
68178;SDS011;54998;42.656;23.382;2023-04-25T10:54:49;5.45;;;3.30;;
68178;SDS011;54998;42.656;23.382;2023-04-25T10:57:30;6.72;;;2.60;;
68178;SDS011;54998;42.656;23.382;2023-04-25T10:59:59;5.40;;;2.30;;
68178;SDS011;54998;42.656;23.382;2023-04-25T11:02:31;4.55;;;2.28;;
68178;SDS011;54998;42.656;23.382;2023-04-25T11:04:56;4.75;;;1.67;;
68178;SDS011;54998;42.656;23.382;2023-04-25T11:10:04;3.85;;;1.85;;
68178;SDS011;54998;42.656;23.382;2023-04-25T11:15:03;4.65;;;1.23;;
68178;SDS011;54998;42.656;23.382;2023-04-25T11:17:30;4.00;;;1.80;;
68178;SDS011;54998;42.656;23.382;2023-04-25T11:19:59;2.50;;;2.03;;
68178;SDS011;54998;42.656;23.382;2023-04-25T11:22:26;2.75;;;1.63;;
68178;SDS011;54998;42.656;23.382;2023-04-25T11:24:53;2.53;;;1.63;;
68178;SDS011;54998;42.656;23.382;2023-04-25T11:27:18;3.95;;;2.13;;
68178;SDS011;54998;42.656;23.382;2023-04-25T11:29:44;3.33;;;2.10;;
68178;SDS011;54998;42.656;23.382;2023-04-25T11:32:12;3.70;;;2.28;;
68178;SDS011;54998;42.656;23.382;2023-04-25T11:34:43;4.95;;;2.58;;
68178;SDS011;54998;42.656;23.382;2023-04-25T11:37:10;5.32;;;2.03;;
68178;SDS011;54998;42.656;23.382;2023-04-25T11:39:37;5.40;;;2.58;;
68178;SDS011;54998;42.656;23.382;2023-04-25T11:42:03;5.75;;;3.20;;
68178;SDS011;54998;42.656;23.382;2023-04-25T11:44:29;7.07;;;2.50;;
68178;SDS011;54998;42.656;23.382;2023-04-25T11:46:55;3.55;;;2.20;;
68178;SDS011;54998;42.656;23.382;2023-04-25T11:49:20;3.85;;;1.88;;
68178;SDS011;54998;42.656;23.382;2023-04-25T11:54:13;4.18;;;2.10;;
68178;SDS011;54998;42.656;23.382;2023-04-25T11:56:42;5.55;;;2.45;;
68178;SDS011;54998;42.656;23.382;2023-04-25T11:59:08;3.67;;;1.90;;
68178;SDS011;54998;42.656;23.382;2023-04-25T12:01:36;2.92;;;1.63;;
68178;SDS011;54998;42.656;23.382;2023-04-25T12:04:14;3.53;;;0.90;;
68178;SDS011;54998;42.656;23.382;2023-04-25T12:06:50;2.25;;;0.60;;
68178;SDS011;54998;42.656;23.382;2023-04-25T12:09:18;1.60;;;0.73;;
68178;SDS011;54998;42.656;23.382;2023-04-25T12:14:20;3.08;;;1.25;;
68178;SDS011;54998;42.656;23.382;2023-04-25T12:16:48;2.75;;;1.27;;
68178;SDS011;54998;42.656;23.382;2023-04-25T12:19:16;3.13;;;1.00;;
68178;SDS011;54998;42.656;23.382;2023-04-25T12:21:43;2.20;;;1.35;;
68178;SDS011;54998;42.656;23.382;2023-04-25T12:29:28;2.13;;;0.93;;
68178;SDS011;54998;42.656;23.382;2023-04-25T12:31:54;5.38;;;0.90;;
68178;SDS011;54998;42.656;23.382;2023-04-25T12:34:20;0.90;;;0.80;;
68178;SDS011;54998;42.656;23.382;2023-04-25T12:36:47;2.25;;;1.67;;
68178;SDS011;54998;42.656;23.382;2023-04-25T12:39:16;3.40;;;1.27;;
68178;SDS011;54998;42.656;23.382;2023-04-25T12:41:47;2.58;;;1.33;;
68178;SDS011;54998;42.656;23.382;2023-04-25T12:44:17;2.40;;;0.90;;
68178;SDS011;54998;42.656;23.382;2023-04-25T12:46:42;2.58;;;0.80;;
68178;SDS011;54998;42.656;23.382;2023-04-25T12:49:08;1.33;;;0.90;;
68178;SDS011;54998;42.656;23.382;2023-04-25T12:51:34;1.67;;;1.30;;
68178;SDS011;54998;42.656;23.382;2023-04-25T12:54:01;2.42;;;1.10;;
68178;SDS011;54998;42.656;23.382;2023-04-25T12:56:27;2.05;;;1.30;;
68178;SDS011;54998;42.656;23.382;2023-04-25T12:58:56;2.70;;;0.90;;
68178;SDS011;54998;42.656;23.382;2023-04-25T13:01:22;4.32;;;1.30;;
68178;SDS011;54998;42.656;23.382;2023-04-25T13:03:51;3.20;;;1.27;;
